sensor_id;sensor_type;location;lat;lon;timestamp;P1;durP1;ratioP1;P2;durP2;ratioP2
32172;SDS011;18679;45.190;5.722;2024-03-08T00:02:15;8.00;;;3.13;;
32172;SDS011;18679;45.190;5.722;2024-03-08T00:05:17;5.30;;;2.80;;
32172;SDS011;18679;45.190;5.722;2024-03-08T00:08:19;5.75;;;2.38;;
32172;SDS011;18679;45.190;5.722;2024-03-08T00:11:20;9.95;;;3.70;;
32172;SDS011;18679;45.190;5.722;2024-03-08T00:14:21;9.23;;;4.20;;
32172;SDS011;18679;45.190;5.722;2024-03-08T00:17:23;6.53;;;3.10;;
32172;SDS011;18679;45.190;5.722;2024-03-08T00:20:25;7.05;;;3.13;;
32172;SDS011;18679;45.190;5.722;2024-03-08T00:23:26;6.72;;;2.80;;
32172;SDS011;18679;45.190;5.722;2024-03-08T00:26:29;6.32;;;3.10;;
32172;SDS011;18679;45.190;5.722;2024-03-08T00:29:30;5.22;;;3.08;;
32172;SDS011;18679;45.190;5.722;2024-03-08T00:32:31;7.22;;;3.50;;
32172;SDS011;18679;45.190;5.722;2024-03-08T00:35:32;6.88;;;3.63;;
32172;SDS011;18679;45.190;5.722;2024-03-08T00:38:38;7.93;;;4.20;;
32172;SDS011;18679;45.190;5.722;2024-03-08T00:41:41;6.97;;;3.83;;
32172;SDS011;18679;45.190;5.722;2024-03-08T00:44:45;5.22;;;2.70;;
32172;SDS011;18679;45.190;5.722;2024-03-08T00:47:48;6.93;;;3.33;;
32172;SDS011;18679;45.190;5.722;2024-03-08T00:50:49;12.57;;;3.92;;
32172;SDS011;18679;45.190;5.722;2024-03-08T00:53:50;4.20;;;2.28;;
32172;SDS011;18679;45.190;5.722;2024-03-08T00:56:51;7.35;;;2.88;;
32172;SDS011;18679;45.190;5.722;2024-03-08T00:59:52;7.95;;;3.45;;
32172;SDS011;18679;45.190;5.722;2024-03-08T01:02:54;5.22;;;2.45;;
32172;SDS011;18679;45.190;5.722;2024-03-08T01:05:55;6.68;;;3.33;;
32172;SDS011;18679;45.190;5.722;2024-03-08T01:08:56;11.82;;;4.18;;
32172;SDS011;18679;45.190;5.722;2024-03-08T01:11:57;12.38;;;3.55;;
32172;SDS011;18679;45.190;5.722;2024-03-08T01:14:59;8.90;;;3.30;;
32172;SDS011;18679;45.190;5.722;2024-03-08T01:18:02;5.55;;;2.72;;
32172;SDS011;18679;45.190;5.722;2024-03-08T01:21:04;5.15;;;2.92;;
32172;SDS011;18679;45.190;5.722;2024-03-08T01:24:05;5.80;;;2.20;;
32172;SDS011;18679;45.190;5.722;2024-03-08T01:27:08;4.22;;;2.50;;
32172;SDS011;18679;45.190;5.722;2024-03-08T01:30:10;4.53;;;2.60;;
32172;SDS011;18679;45.190;5.722;2024-03-08T01:33:11;5.97;;;2.60;;
32172;SDS011;18679;45.190;5.722;2024-03-08T01:36:11;8.15;;;2.78;;
32172;SDS011;18679;45.190;5.722;2024-03-08T01:39:17;8.48;;;3.10;;
32172;SDS011;18679;45.190;5.722;2024-03-08T01:42:19;5.45;;;2.60;;
32172;SDS011;18679;45.190;5.722;2024-03-08T01:45:22;10.18;;;3.17;;
32172;SDS011;18679;45.190;5.722;2024-03-08T01:48:23;7.30;;;2.97;;
32172;SDS011;18679;45.190;5.722;2024-03-08T01:51:24;6.30;;;3.10;;
32172;SDS011;18679;45.190;5.722;2024-03-08T01:54:25;7.00;;;2.97;;
32172;SDS011;18679;45.190;5.722;2024-03-08T01:57:27;7.85;;;2.22;;
32172;SDS011;18679;45.190;5.722;2024-03-08T02:00:29;8.10;;;2.83;;
32172;SDS011;18679;45.190;5.722;2024-03-08T02:03:30;8.85;;;4.05;;
32172;SDS011;18679;45.190;5.722;2024-03-08T02:06:35;8.05;;;3.75;;
32172;SDS011;18679;45.190;5.722;2024-03-08T02:09:38;6.25;;;2.95;;
32172;SDS011;18679;45.190;5.722;2024-03-08T02:12:39;5.93;;;3.45;;
32172;SDS011;18679;45.190;5.722;2024-03-08T02:15:57;6.90;;;3.33;;
32172;SDS011;18679;45.190;5.722;2024-03-08T02:19:01;7.75;;;3.45;;
32172;SDS011;18679;45.190;5.722;2024-03-08T02:22:02;7.78;;;3.30;;
32172;SDS011;18679;45.190;5.722;2024-03-08T02:25:04;6.10;;;3.72;;
32172;SDS011;18679;45.190;5.722;2024-03-08T02:28:12;6.30;;;3.30;;
32172;SDS011;18679;45.190;5.722;2024-03-08T02:31:14;5.53;;;3.00;;
32172;SDS011;18679;45.190;5.722;2024-03-08T02:34:15;6.78;;;3.75;;
32172;SDS011;18679;45.190;5.722;2024-03-08T02:37:18;6.18;;;3.00;;
32172;SDS011;18679;45.190;5.722;2024-03-08T02:40:19;6.45;;;3.38;;
32172;SDS011;18679;45.190;5.722;2024-03-08T02:43:20;3.88;;;2.50;;
32172;SDS011;18679;45.190;5.722;2024-03-08T02:46:24;8.38;;;4.60;;
32172;SDS011;18679;45.190;5.722;2024-03-08T02:49:26;5.90;;;3.42;;
32172;SDS011;18679;45.190;5.722;2024-03-08T02:52:30;8.98;;;4.43;;
32172;SDS011;18679;45.190;5.722;2024-03-08T02:55:31;8.43;;;2.85;;
32172;SDS011;18679;45.190;5.722;2024-03-08T02:58:35;7.25;;;3.42;;
32172;SDS011;18679;45.190;5.722;2024-03-08T03:01:36;8.93;;;3.03;;
32172;SDS011;18679;45.190;5.722;2024-03-08T03:04:39;5.50;;;2.58;;
32172;SDS011;18679;45.190;5.722;2024-03-08T03:07:40;6.28;;;3.30;;
32172;SDS011;18679;45.190;5.722;2024-03-08T03:10:42;7.47;;;3.25;;
32172;SDS011;18679;45.190;5.722;2024-03-08T03:13:45;6.18;;;3.38;;
32172;SDS011;18679;45.190;5.722;2024-03-08T03:16:48;7.18;;;3.17;;
32172;SDS011;18679;45.190;5.722;2024-03-08T03:19:52;10.48;;;4.35;;
32172;SDS011;18679;45.190;5.722;2024-03-08T03:22:56;5.90;;;3.63;;
32172;SDS011;18679;45.190;5.722;2024-03-08T03:26:01;7.28;;;3.47;;
32172;SDS011;18679;45.190;5.722;2024-03-08T03:29:02;8.05;;;3.53;;
32172;SDS011;18679;45.190;5.722;2024-03-08T03:32:10;6.05;;;3.10;;
32172;SDS011;18679;45.190;5.722;2024-03-08T03:35:12;6.35;;;3.33;;
32172;SDS011;18679;45.190;5.722;2024-03-08T03:38:14;5.18;;;3.25;;
32172;SDS011;18679;45.190;5.722;2024-03-08T03:41:18;7.40;;;3.33;;
32172;SDS011;18679;45.190;5.722;2024-03-08T03:44:20;4.97;;;3.25;;
32172;SDS011;18679;45.190;5.722;2024-03-08T03:47:23;7.32;;;3.55;;
32172;SDS011;18679;45.190;5.722;2024-03-08T03:50:24;5.00;;;2.75;;
32172;SDS011;18679;45.190;5.722;2024-03-08T03:53:25;6.25;;;3.63;;
32172;SDS011;18679;45.190;5.722;2024-03-08T03:56:28;8.38;;;3.58;;
32172;SDS011;18679;45.190;5.722;2024-03-08T03:59:30;8.10;;;3.97;;
32172;SDS011;18679;45.190;5.722;2024-03-08T04:02:32;6.20;;;3.92;;
32172;SDS011;18679;45.190;5.722;2024-03-08T04:05:33;5.10;;;3.20;;
32172;SDS011;18679;45.190;5.722;2024-03-08T04:08:36;7.85;;;3.35;;
32172;SDS011;18679;45.190;5.722;2024-03-08T04:11:36;7.47;;;3.42;;
32172;SDS011;18679;45.190;5.722;2024-03-08T04:14:40;5.93;;;3.53;;
32172;SDS011;18679;45.190;5.722;2024-03-08T04:17:42;10.05;;;4.00;;
32172;SDS011;18679;45.190;5.722;2024-03-08T04:20:45;6.50;;;3.20;;
32172;SDS011;18679;45.190;5.722;2024-03-08T04:23:47;5.80;;;3.25;;
32172;SDS011;18679;45.190;5.722;2024-03-08T04:26:48;8.27;;;3.60;;
32172;SDS011;18679;45.190;5.722;2024-03-08T04:29:50;7.50;;;3.53;;
32172;SDS011;18679;45.190;5.722;2024-03-08T04:32:51;7.00;;;4.15;;
32172;SDS011;18679;45.190;5.722;2024-03-08T04:35:55;8.43;;;3.95;;
32172;SDS011;18679;45.190;5.722;2024-03-08T04:38:56;12.93;;;4.07;;
32172;SDS011;18679;45.190;5.722;2024-03-08T04:41:59;6.97;;;3.67;;
32172;SDS011;18679;45.190;5.722;2024-03-08T04:45:04;6.20;;;3.72;;
32172;SDS011;18679;45.190;5.722;2024-03-08T04:48:08;8.40;;;3.22;;
32172;SDS011;18679;45.190;5.722;2024-03-08T04:51:09;6.97;;;3.80;;
32172;SDS011;18679;45.190;5.722;2024-03-08T04:54:12;9.25;;;4.25;;
32172;SDS011;18679;45.190;5.722;2024-03-08T04:57:13;10.40;;;4.47;;
32172;SDS011;18679;45.190;5.722;2024-03-08T05:00:20;6.22;;;3.88;;
32172;SDS011;18679;45.190;5.722;2024-03-08T05:03:21;8.10;;;4.03;;
32172;SDS011;18679;45.190;5.722;2024-03-08T05:06:22;10.10;;;4.13;;
32172;SDS011;18679;45.190;5.722;2024-03-08T05:09:23;10.15;;;4.90;;
32172;SDS011;18679;45.190;5.722;2024-03-08T05:12:25;14.60;;;5.03;;
32172;SDS011;18679;45.190;5.722;2024-03-08T05:15:26;7.63;;;4.07;;
32172;SDS011;18679;45.190;5.722;2024-03-08T05:18:30;7.68;;;3.92;;
32172;SDS011;18679;45.190;5.722;2024-03-08T05:21:32;15.30;;;3.92;;
32172;SDS011;18679;45.190;5.722;2024-03-08T05:24:33;9.63;;;3.22;;
32172;SDS011;18679;45.190;5.722;2024-03-08T05:27:34;6.75;;;2.90;;
32172;SDS011;18679;45.190;5.722;2024-03-08T05:30:37;9.07;;;3.88;;
32172;SDS011;18679;45.190;5.722;2024-03-08T05:33:42;11.05;;;3.63;;
32172;SDS011;18679;45.190;5.722;2024-03-08T05:36:45;9.10;;;3.33;;
32172;SDS011;18679;45.190;5.722;2024-03-08T05:39:46;7.68;;;3.53;;
32172;SDS011;18679;45.190;5.722;2024-03-08T05:42:47;7.88;;;4.13;;
32172;SDS011;18679;45.190;5.722;2024-03-08T05:45:49;4.82;;;3.28;;
32172;SDS011;18679;45.190;5.722;2024-03-08T05:48:50;8.30;;;3.15;;
32172;SDS011;18679;45.190;5.722;2024-03-08T05:51:53;9.20;;;4.28;;
32172;SDS011;18679;45.190;5.722;2024-03-08T05:54:55;12.00;;;3.50;;
32172;SDS011;18679;45.190;5.722;2024-03-08T05:57:57;9.65;;;4.35;;
32172;SDS011;18679;45.190;5.722;2024-03-08T06:00:58;11.80;;;4.38;;
32172;SDS011;18679;45.190;5.722;2024-03-08T06:04:01;6.25;;;3.72;;
32172;SDS011;18679;45.190;5.722;2024-03-08T06:07:04;11.55;;;4.30;;
32172;SDS011;18679;45.190;5.722;2024-03-08T06:10:05;7.20;;;3.15;;
32172;SDS011;18679;45.190;5.722;2024-03-08T06:13:13;5.95;;;3.22;;
32172;SDS011;18679;45.190;5.722;2024-03-08T06:16:15;8.07;;;3.75;;
32172;SDS011;18679;45.190;5.722;2024-03-08T06:19:17;9.07;;;5.70;;
32172;SDS011;18679;45.190;5.722;2024-03-08T06:22:19;10.38;;;4.65;;
32172;SDS011;18679;45.190;5.722;2024-03-08T06:25:20;8.57;;;4.25;;
32172;SDS011;18679;45.190;5.722;2024-03-08T06:28:21;5.18;;;3.03;;
32172;SDS011;18679;45.190;5.722;2024-03-08T06:31:26;8.10;;;4.75;;
32172;SDS011;18679;45.190;5.722;2024-03-08T06:34:29;8.27;;;4.45;;
32172;SDS011;18679;45.190;5.722;2024-03-08T06:37:29;7.80;;;3.90;;
32172;SDS011;18679;45.190;5.722;2024-03-08T06:40:32;7.13;;;4.20;;
32172;SDS011;18679;45.190;5.722;2024-03-08T06:43:32;7.95;;;4.57;;
32172;SDS011;18679;45.190;5.722;2024-03-08T06:46:34;10.27;;;4.05;;
32172;SDS011;18679;45.190;5.722;2024-03-08T06:49:35;7.70;;;4.05;;
32172;SDS011;18679;45.190;5.722;2024-03-08T06:52:36;8.57;;;4.82;;
32172;SDS011;18679;45.190;5.722;2024-03-08T06:55:39;7.07;;;4.78;;
32172;SDS011;18679;45.190;5.722;2024-03-08T06:58:40;14.52;;;5.53;;
32172;SDS011;18679;45.190;5.722;2024-03-08T07:01:42;12.40;;;4.95;;
32172;SDS011;18679;45.190;5.722;2024-03-08T07:04:43;11.13;;;4.28;;
32172;SDS011;18679;45.190;5.722;2024-03-08T07:07:44;8.18;;;4.50;;
32172;SDS011;18679;45.190;5.722;2024-03-08T07:10:48;8.98;;;4.57;;
32172;SDS011;18679;45.190;5.722;2024-03-08T07:13:49;11.05;;;4.97;;
32172;SDS011;18679;45.190;5.722;2024-03-08T07:16:50;14.35;;;5.63;;
32172;SDS011;18679;45.190;5.722;2024-03-08T07:19:54;13.65;;;5.55;;
32172;SDS011;18679;45.190;5.722;2024-03-08T07:22:57;10.45;;;4.47;;
32172;SDS011;18679;45.190;5.722;2024-03-08T07:25:58;12.20;;;5.22;;
32172;SDS011;18679;45.190;5.722;2024-03-08T07:29:01;9.50;;;4.93;;
32172;SDS011;18679;45.190;5.722;2024-03-08T07:32:02;21.77;;;5.80;;
32172;SDS011;18679;45.190;5.722;2024-03-08T07:35:18;10.43;;;4.72;;
32172;SDS011;18679;45.190;5.722;2024-03-08T07:38:23;13.55;;;6.30;;
32172;SDS011;18679;45.190;5.722;2024-03-08T07:41:24;13.73;;;6.30;;
32172;SDS011;18679;45.190;5.722;2024-03-08T07:44:26;11.82;;;4.93;;
32172;SDS011;18679;45.190;5.722;2024-03-08T07:47:30;16.13;;;5.93;;
32172;SDS011;18679;45.190;5.722;2024-03-08T07:50:33;11.00;;;5.35;;
32172;SDS011;18679;45.190;5.722;2024-03-08T07:53:35;13.93;;;6.32;;
32172;SDS011;18679;45.190;5.722;2024-03-08T07:56:39;8.57;;;4.38;;
32172;SDS011;18679;45.190;5.722;2024-03-08T08:04:04;13.18;;;6.70;;
32172;SDS011;18679;45.190;5.722;2024-03-08T08:07:05;14.80;;;6.90;;
32172;SDS011;18679;45.190;5.722;2024-03-08T08:10:33;11.60;;;5.63;;
32172;SDS011;18679;45.190;5.722;2024-03-08T08:13:34;14.20;;;4.60;;
32172;SDS011;18679;45.190;5.722;2024-03-08T08:16:36;13.15;;;6.30;;
32172;SDS011;18679;45.190;5.722;2024-03-08T08:19:38;12.35;;;6.57;;
32172;SDS011;18679;45.190;5.722;2024-03-08T08:22:41;14.02;;;6.50;;
32172;SDS011;18679;45.190;5.722;2024-03-08T08:25:43;25.20;;;7.63;;
32172;SDS011;18679;45.190;5.722;2024-03-08T08:28:45;18.73;;;7.63;;
32172;SDS011;18679;45.190;5.722;2024-03-08T08:31:49;12.88;;;6.07;;
32172;SDS011;18679;45.190;5.722;2024-03-08T08:34:50;16.15;;;6.97;;
32172;SDS011;18679;45.190;5.722;2024-03-08T08:37:51;14.38;;;6.82;;
32172;SDS011;18679;45.190;5.722;2024-03-08T08:40:51;12.98;;;5.43;;
32172;SDS011;18679;45.190;5.722;2024-03-08T08:43:52;12.73;;;6.43;;
32172;SDS011;18679;45.190;5.722;2024-03-08T08:46:55;13.38;;;5.95;;
32172;SDS011;18679;45.190;5.722;2024-03-08T08:49:57;13.48;;;6.60;;
32172;SDS011;18679;45.190;5.722;2024-03-08T08:52:58;14.90;;;6.10;;
32172;SDS011;18679;45.190;5.722;2024-03-08T08:56:01;15.23;;;6.18;;
32172;SDS011;18679;45.190;5.722;2024-03-08T08:59:02;18.40;;;6.97;;
32172;SDS011;18679;45.190;5.722;2024-03-08T09:02:06;14.07;;;6.75;;
32172;SDS011;18679;45.190;5.722;2024-03-08T09:05:09;13.27;;;5.88;;
32172;SDS011;18679;45.190;5.722;2024-03-08T09:08:10;24.17;;;6.35;;
32172;SDS011;18679;45.190;5.722;2024-03-08T09:11:13;13.77;;;6.60;;
32172;SDS011;18679;45.190;5.722;2024-03-08T09:14:15;15.18;;;5.95;;
32172;SDS011;18679;45.190;5.722;2024-03-08T09:17:17;11.52;;;5.55;;
32172;SDS011;18679;45.190;5.722;2024-03-08T09:20:20;12.30;;;6.25;;
32172;SDS011;18679;45.190;5.722;2024-03-08T09:23:21;9.93;;;4.63;;
32172;SDS011;18679;45.190;5.722;2024-03-08T09:26:26;12.43;;;5.55;;
32172;SDS011;18679;45.190;5.722;2024-03-08T09:29:27;14.32;;;5.72;;
32172;SDS011;18679;45.190;5.722;2024-03-08T09:32:32;14.43;;;5.57;;
32172;SDS011;18679;45.190;5.722;2024-03-08T09:35:33;13.50;;;6.70;;
32172;SDS011;18679;45.190;5.722;2024-03-08T09:38:34;19.92;;;6.78;;
32172;SDS011;18679;45.190;5.722;2024-03-08T09:41:36;15.00;;;6.10;;
32172;SDS011;18679;45.190;5.722;2024-03-08T09:44:39;13.45;;;6.32;;
32172;SDS011;18679;45.190;5.722;2024-03-08T09:47:44;14.50;;;5.75;;
32172;SDS011;18679;45.190;5.722;2024-03-08T09:50:46;12.95;;;5.30;;
32172;SDS011;18679;45.190;5.722;2024-03-08T09:53:48;11.85;;;4.80;;
32172;SDS011;18679;45.190;5.722;2024-03-08T09:56:51;12.57;;;5.68;;
32172;SDS011;18679;45.190;5.722;2024-03-08T09:59:52;14.98;;;5.40;;
32172;SDS011;18679;45.190;5.722;2024-03-08T10:02:53;12.45;;;5.38;;
32172;SDS011;18679;45.190;5.722;2024-03-08T10:05:58;10.98;;;4.68;;
32172;SDS011;18679;45.190;5.722;2024-03-08T10:09:03;15.45;;;5.70;;
32172;SDS011;18679;45.190;5.722;2024-03-08T10:12:06;11.80;;;5.68;;
32172;SDS011;18679;45.190;5.722;2024-03-08T10:15:13;10.18;;;4.30;;
32172;SDS011;18679;45.190;5.722;2024-03-08T10:18:16;11.13;;;5.50;;
32172;SDS011;18679;45.190;5.722;2024-03-08T10:21:18;15.75;;;8.20;;
32172;SDS011;18679;45.190;5.722;2024-03-08T10:24:20;21.23;;;7.85;;
32172;SDS011;18679;45.190;5.722;2024-03-08T10:27:23;7.65;;;4.30;;
32172;SDS011;18679;45.190;5.722;2024-03-08T10:30:26;7.07;;;3.88;;
32172;SDS011;18679;45.190;5.722;2024-03-08T10:33:28;11.32;;;5.80;;
32172;SDS011;18679;45.190;5.722;2024-03-08T10:36:29;19.70;;;7.72;;
32172;SDS011;18679;45.190;5.722;2024-03-08T10:39:34;10.75;;;5.13;;
32172;SDS011;18679;45.190;5.722;2024-03-08T10:42:40;10.85;;;5.38;;
32172;SDS011;18679;45.190;5.722;2024-03-08T10:45:48;19.02;;;7.97;;
32172;SDS011;18679;45.190;5.722;2024-03-08T10:48:53;21.13;;;7.95;;
32172;SDS011;18679;45.190;5.722;2024-03-08T10:52:05;4.97;;;3.22;;
32172;SDS011;18679;45.190;5.722;2024-03-08T10:55:08;6.95;;;3.58;;
32172;SDS011;18679;45.190;5.722;2024-03-08T10:58:13;16.63;;;6.95;;
32172;SDS011;18679;45.190;5.722;2024-03-08T11:01:14;20.23;;;7.68;;
32172;SDS011;18679;45.190;5.722;2024-03-08T11:04:15;7.45;;;4.07;;
32172;SDS011;18679;45.190;5.722;2024-03-08T11:07:20;9.60;;;4.32;;
32172;SDS011;18679;45.190;5.722;2024-03-08T11:10:21;9.93;;;4.18;;
32172;SDS011;18679;45.190;5.722;2024-03-08T11:13:38;12.85;;;5.60;;
32172;SDS011;18679;45.190;5.722;2024-03-08T11:16:44;9.63;;;4.90;;
32172;SDS011;18679;45.190;5.722;2024-03-08T11:19:47;14.68;;;6.32;;
32172;SDS011;18679;45.190;5.722;2024-03-08T11:25:52;7.80;;;3.70;;
32172;SDS011;18679;45.190;5.722;2024-03-08T11:28:53;10.52;;;4.45;;
32172;SDS011;18679;45.190;5.722;2024-03-08T11:35:08;15.07;;;6.32;;
32172;SDS011;18679;45.190;5.722;2024-03-08T11:38:21;13.88;;;6.57;;
32172;SDS011;18679;45.190;5.722;2024-03-08T11:41:23;18.85;;;6.72;;
32172;SDS011;18679;45.190;5.722;2024-03-08T11:44:26;8.52;;;4.68;;
32172;SDS011;18679;45.190;5.722;2024-03-08T11:47:27;7.95;;;3.88;;
32172;SDS011;18679;45.190;5.722;2024-03-08T11:50:29;13.18;;;4.07;;
32172;SDS011;18679;45.190;5.722;2024-03-08T11:53:31;16.10;;;6.90;;
32172;SDS011;18679;45.190;5.722;2024-03-08T11:56:35;9.68;;;5.32;;
32172;SDS011;18679;45.190;5.722;2024-03-08T11:59:38;14.75;;;6.45;;
32172;SDS011;18679;45.190;5.722;2024-03-08T12:02:38;16.52;;;7.20;;
32172;SDS011;18679;45.190;5.722;2024-03-08T12:05:43;16.70;;;7.45;;
32172;SDS011;18679;45.190;5.722;2024-03-08T12:08:45;20.90;;;7.95;;
32172;SDS011;18679;45.190;5.722;2024-03-08T12:11:52;13.40;;;6.60;;
32172;SDS011;18679;45.190;5.722;2024-03-08T12:14:56;15.38;;;7.53;;
32172;SDS011;18679;45.190;5.722;2024-03-08T12:17:59;12.75;;;5.82;;
32172;SDS011;18679;45.190;5.722;2024-03-08T12:21:08;9.48;;;4.70;;
32172;SDS011;18679;45.190;5.722;2024-03-08T12:24:23;10.35;;;4.60;;
32172;SDS011;18679;45.190;5.722;2024-03-08T12:27:24;15.73;;;5.18;;
32172;SDS011;18679;45.190;5.722;2024-03-08T12:30:30;7.63;;;4.45;;
32172;SDS011;18679;45.190;5.722;2024-03-08T12:33:34;13.82;;;5.97;;
32172;SDS011;18679;45.190;5.722;2024-03-08T12:36:35;17.20;;;6.22;;
32172;SDS011;18679;45.190;5.722;2024-03-08T12:39:40;14.70;;;6.93;;
32172;SDS011;18679;45.190;5.722;2024-03-08T12:42:43;14.50;;;5.82;;
32172;SDS011;18679;45.190;5.722;2024-03-08T12:46:07;13.18;;;5.13;;
32172;SDS011;18679;45.190;5.722;2024-03-08T12:49:09;24.63;;;8.52;;
32172;SDS011;18679;45.190;5.722;2024-03-08T12:52:11;15.80;;;7.35;;
32172;SDS011;18679;45.190;5.722;2024-03-08T12:55:12;12.93;;;5.35;;
32172;SDS011;18679;45.190;5.722;2024-03-08T12:58:13;12.50;;;4.95;;
32172;SDS011;18679;45.190;5.722;2024-03-08T13:01:17;10.25;;;4.93;;
32172;SDS011;18679;45.190;5.722;2024-03-08T13:04:19;13.35;;;5.35;;
32172;SDS011;18679;45.190;5.722;2024-03-08T13:07:21;15.95;;;4.70;;
32172;SDS011;18679;45.190;5.722;2024-03-08T13:10:23;13.02;;;6.00;;
32172;SDS011;18679;45.190;5.722;2024-03-08T13:13:24;12.43;;;5.20;;
32172;SDS011;18679;45.190;5.722;2024-03-08T13:16:26;13.30;;;5.60;;
32172;SDS011;18679;45.190;5.722;2024-03-08T13:19:29;10.15;;;4.32;;
32172;SDS011;18679;45.190;5.722;2024-03-08T13:22:31;13.80;;;4.95;;
32172;SDS011;18679;45.190;5.722;2024-03-08T13:25:32;14.93;;;5.50;;
32172;SDS011;18679;45.190;5.722;2024-03-08T13:28:32;12.45;;;4.80;;
32172;SDS011;18679;45.190;5.722;2024-03-08T13:31:37;10.05;;;4.90;;
32172;SDS011;18679;45.190;5.722;2024-03-08T13:34:43;9.40;;;4.88;;
32172;SDS011;18679;45.190;5.722;2024-03-08T13:37:45;14.80;;;5.32;;
32172;SDS011;18679;45.190;5.722;2024-03-08T13:40:48;9.20;;;4.47;;
32172;SDS011;18679;45.190;5.722;2024-03-08T13:43:49;10.45;;;3.72;;
32172;SDS011;18679;45.190;5.722;2024-03-08T13:46:50;10.23;;;4.25;;
32172;SDS011;18679;45.190;5.722;2024-03-08T13:49:51;12.77;;;4.78;;
32172;SDS011;18679;45.190;5.722;2024-03-08T13:52:54;11.13;;;4.85;;
32172;SDS011;18679;45.190;5.722;2024-03-08T13:55:58;6.57;;;3.10;;
32172;SDS011;18679;45.190;5.722;2024-03-08T13:59:02;5.65;;;2.50;;
32172;SDS011;18679;45.190;5.722;2024-03-08T14:02:04;5.95;;;2.58;;
32172;SDS011;18679;45.190;5.722;2024-03-08T14:05:06;6.32;;;3.05;;
32172;SDS011;18679;45.190;5.722;2024-03-08T14:08:09;6.25;;;3.05;;
32172;SDS011;18679;45.190;5.722;2024-03-08T14:11:12;5.45;;;2.38;;
32172;SDS011;18679;45.190;5.722;2024-03-08T14:14:13;6.88;;;2.47;;
32172;SDS011;18679;45.190;5.722;2024-03-08T14:17:14;6.15;;;2.10;;
32172;SDS011;18679;45.190;5.722;2024-03-08T14:20:17;3.63;;;2.05;;
32172;SDS011;18679;45.190;5.722;2024-03-08T14:23:19;4.07;;;2.08;;
32172;SDS011;18679;45.190;5.722;2024-03-08T14:26:22;3.45;;;1.77;;
32172;SDS011;18679;45.190;5.722;2024-03-08T14:29:23;9.02;;;2.88;;
32172;SDS011;18679;45.190;5.722;2024-03-08T14:32:27;6.35;;;2.38;;
32172;SDS011;18679;45.190;5.722;2024-03-08T14:35:28;2.58;;;1.38;;
32172;SDS011;18679;45.190;5.722;2024-03-08T14:38:29;5.68;;;2.58;;
32172;SDS011;18679;45.190;5.722;2024-03-08T14:41:30;6.13;;;1.45;;
32172;SDS011;18679;45.190;5.722;2024-03-08T14:44:31;5.47;;;2.17;;
32172;SDS011;18679;45.190;5.722;2024-03-08T14:47:33;3.13;;;1.70;;
32172;SDS011;18679;45.190;5.722;2024-03-08T14:50:35;7.82;;;1.80;;
32172;SDS011;18679;45.190;5.722;2024-03-08T14:53:38;1.95;;;1.25;;
32172;SDS011;18679;45.190;5.722;2024-03-08T14:56:41;1.83;;;0.63;;
32172;SDS011;18679;45.190;5.722;2024-03-08T14:59:42;0.82;;;0.60;;
32172;SDS011;18679;45.190;5.722;2024-03-08T15:02:45;2.25;;;1.00;;
32172;SDS011;18679;45.190;5.722;2024-03-08T15:05:47;1.13;;;0.60;;
32172;SDS011;18679;45.190;5.722;2024-03-08T15:08:50;3.83;;;1.45;;
32172;SDS011;18679;45.190;5.722;2024-03-08T15:11:52;1.88;;;1.10;;
32172;SDS011;18679;45.190;5.722;2024-03-08T15:14:55;3.55;;;1.40;;
32172;SDS011;18679;45.190;5.722;2024-03-08T15:17:56;1.20;;;0.70;;
32172;SDS011;18679;45.190;5.722;2024-03-08T15:20:59;2.90;;;0.93;;
32172;SDS011;18679;45.190;5.722;2024-03-08T15:24:01;2.28;;;0.80;;
32172;SDS011;18679;45.190;5.722;2024-03-08T15:27:04;2.92;;;1.48;;
32172;SDS011;18679;45.190;5.722;2024-03-08T15:30:07;1.13;;;0.35;;
32172;SDS011;18679;45.190;5.722;2024-03-08T15:33:13;7.28;;;0.70;;
32172;SDS011;18679;45.190;5.722;2024-03-08T15:36:20;1.38;;;0.82;;
32172;SDS011;18679;45.190;5.722;2024-03-08T15:39:22;1.75;;;0.73;;
32172;SDS011;18679;45.190;5.722;2024-03-08T15:42:28;2.88;;;1.13;;
32172;SDS011;18679;45.190;5.722;2024-03-08T15:45:29;2.42;;;0.80;;
32172;SDS011;18679;45.190;5.722;2024-03-08T15:48:31;1.50;;;0.90;;
32172;SDS011;18679;45.190;5.722;2024-03-08T15:51:33;1.60;;;1.10;;
32172;SDS011;18679;45.190;5.722;2024-03-08T15:54:37;1.35;;;0.40;;
32172;SDS011;18679;45.190;5.722;2024-03-08T15:57:40;3.67;;;1.30;;
32172;SDS011;18679;45.190;5.722;2024-03-08T16:00:41;3.35;;;1.52;;
32172;SDS011;18679;45.190;5.722;2024-03-08T16:03:48;4.38;;;1.52;;
32172;SDS011;18679;45.190;5.722;2024-03-08T16:06:49;1.38;;;0.60;;
32172;SDS011;18679;45.190;5.722;2024-03-08T16:09:52;3.28;;;1.27;;
32172;SDS011;18679;45.190;5.722;2024-03-08T16:12:53;2.67;;;0.77;;
32172;SDS011;18679;45.190;5.722;2024-03-08T16:15:58;1.40;;;1.00;;
32172;SDS011;18679;45.190;5.722;2024-03-08T16:18:59;3.08;;;1.13;;
32172;SDS011;18679;45.190;5.722;2024-03-08T16:22:01;1.38;;;0.90;;
32172;SDS011;18679;45.190;5.722;2024-03-08T16:25:05;1.30;;;1.05;;
32172;SDS011;18679;45.190;5.722;2024-03-08T16:28:13;3.40;;;1.15;;
32172;SDS011;18679;45.190;5.722;2024-03-08T16:31:14;2.13;;;0.98;;
32172;SDS011;18679;45.190;5.722;2024-03-08T16:34:15;2.85;;;1.30;;
32172;SDS011;18679;45.190;5.722;2024-03-08T16:37:16;3.60;;;1.65;;
32172;SDS011;18679;45.190;5.722;2024-03-08T16:40:19;8.95;;;2.63;;
32172;SDS011;18679;45.190;5.722;2024-03-08T16:43:22;4.45;;;1.77;;
32172;SDS011;18679;45.190;5.722;2024-03-08T16:46:23;1.80;;;0.82;;
32172;SDS011;18679;45.190;5.722;2024-03-08T16:49:25;15.05;;;3.50;;
32172;SDS011;18679;45.190;5.722;2024-03-08T16:52:26;2.20;;;1.00;;
32172;SDS011;18679;45.190;5.722;2024-03-08T16:55:29;2.05;;;1.33;;
32172;SDS011;18679;45.190;5.722;2024-03-08T16:58:40;2.25;;;1.15;;
32172;SDS011;18679;45.190;5.722;2024-03-08T17:01:47;1.80;;;1.05;;
32172;SDS011;18679;45.190;5.722;2024-03-08T17:04:54;8.05;;;3.00;;
32172;SDS011;18679;45.190;5.722;2024-03-08T17:07:56;5.88;;;2.45;;
32172;SDS011;18679;45.190;5.722;2024-03-08T17:11:06;5.50;;;2.72;;
32172;SDS011;18679;45.190;5.722;2024-03-08T17:14:13;24.48;;;6.80;;
32172;SDS011;18679;45.190;5.722;2024-03-08T17:17:16;8.50;;;3.03;;
32172;SDS011;18679;45.190;5.722;2024-03-08T17:20:19;3.90;;;1.63;;
32172;SDS011;18679;45.190;5.722;2024-03-08T17:23:24;1.85;;;0.68;;
32172;SDS011;18679;45.190;5.722;2024-03-08T17:26:28;1.20;;;0.60;;
32172;SDS011;18679;45.190;5.722;2024-03-08T17:29:34;0.73;;;0.68;;
32172;SDS011;18679;45.190;5.722;2024-03-08T17:32:42;5.97;;;2.28;;
32172;SDS011;18679;45.190;5.722;2024-03-08T17:35:44;5.85;;;1.80;;
32172;SDS011;18679;45.190;5.722;2024-03-08T17:38:45;1.50;;;1.40;;
32172;SDS011;18679;45.190;5.722;2024-03-08T17:41:54;3.80;;;1.65;;
32172;SDS011;18679;45.190;5.722;2024-03-08T17:45:01;4.30;;;1.98;;
32172;SDS011;18679;45.190;5.722;2024-03-08T17:48:02;2.67;;;1.75;;
32172;SDS011;18679;45.190;5.722;2024-03-08T17:51:16;4.70;;;2.17;;
32172;SDS011;18679;45.190;5.722;2024-03-08T17:54:17;3.72;;;2.33;;
32172;SDS011;18679;45.190;5.722;2024-03-08T17:57:26;5.15;;;2.92;;
32172;SDS011;18679;45.190;5.722;2024-03-08T18:00:29;8.82;;;2.85;;
32172;SDS011;18679;45.190;5.722;2024-03-08T18:07:09;4.18;;;2.45;;
32172;SDS011;18679;45.190;5.722;2024-03-08T18:10:14;10.13;;;4.38;;
32172;SDS011;18679;45.190;5.722;2024-03-08T18:13:22;8.45;;;3.45;;
32172;SDS011;18679;45.190;5.722;2024-03-08T18:16:24;7.43;;;3.35;;
32172;SDS011;18679;45.190;5.722;2024-03-08T18:19:27;9.82;;;3.65;;
32172;SDS011;18679;45.190;5.722;2024-03-08T18:22:32;12.05;;;3.97;;
32172;SDS011;18679;45.190;5.722;2024-03-08T18:25:33;4.75;;;1.98;;
32172;SDS011;18679;45.190;5.722;2024-03-08T18:28:38;9.55;;;1.80;;
32172;SDS011;18679;45.190;5.722;2024-03-08T18:31:41;5.07;;;2.42;;